sensor_id;sensor_type;location;lat;lon;timestamp;pressure;altitude;pressure_sealevel;temperature;humidity
14253;BME280;7210;51.502;10.722;2023-01-30T00:01:17;99867.25;;;0.84;96.26
14253;BME280;7210;51.502;10.722;2023-01-30T00:03:46;99865.00;;;0.89;96.19
14253;BME280;7210;51.502;10.722;2023-01-30T00:06:14;99807.03;;;0.63;95.96
14253;BME280;7210;51.502;10.722;2023-01-30T00:08:47;99840.28;;;0.93;96.21
14253;BME280;7210;51.502;10.722;2023-01-30T00:11:16;99831.19;;;0.97;96.00
14253;BME280;7210;51.502;10.722;2023-01-30T00:13:46;99820.44;;;0.92;96.09
14253;BME280;7210;51.502;10.722;2023-01-30T00:16:14;99807.09;;;0.95;95.95
14253;BME280;7210;51.502;10.722;2023-01-30T00:18:42;99796.69;;;0.95;96.07
14253;BME280;7210;51.502;10.722;2023-01-30T00:21:13;99787.91;;;0.96;96.53
14253;BME280;7210;51.502;10.722;2023-01-30T00:23:41;99771.50;;;0.96;95.79
14253;BME280;7210;51.502;10.722;2023-01-30T00:26:10;99764.66;;;0.95;96.60
14253;BME280;7210;51.502;10.722;2023-01-30T00:28:39;99760.25;;;0.95;96.57
14253;BME280;7210;51.502;10.722;2023-01-30T00:31:11;99768.41;;;1.00;96.34
14253;BME280;7210;51.502;10.722;2023-01-30T00:33:38;99761.59;;;0.99;96.63
14253;BME280;7210;51.502;10.722;2023-01-30T00:36:08;99763.22;;;1.00;96.39
14253;BME280;7210;51.502;10.722;2023-01-30T00:38:38;99748.88;;;1.04;96.66
14253;BME280;7210;51.502;10.722;2023-01-30T00:41:06;99742.72;;;1.05;96.96
14253;BME280;7210;51.502;10.722;2023-01-30T00:43:35;99731.63;;;1.03;97.22
14253;BME280;7210;51.502;10.722;2023-01-30T00:46:25;99760.44;;;1.10;96.71
14253;BME280;7210;51.502;10.722;2023-01-30T00:49:18;99766.31;;;1.12;97.26
14253;BME280;7210;51.502;10.722;2023-01-30T00:51:45;99753.13;;;1.13;96.93
14253;BME280;7210;51.502;10.722;2023-01-30T00:54:13;99751.50;;;1.12;97.37
14253;BME280;7210;51.502;10.722;2023-01-30T00:56:41;99735.22;;;1.18;96.94
14253;BME280;7210;51.502;10.722;2023-01-30T00:59:08;99710.00;;;1.19;97.39
14253;BME280;7210;51.502;10.722;2023-01-30T01:01:35;99711.63;;;1.20;97.24
14253;BME280;7210;51.502;10.722;2023-01-30T01:04:03;99702.84;;;1.21;97.64
14253;BME280;7210;51.502;10.722;2023-01-30T01:06:31;99696.50;;;1.23;97.91
14253;BME280;7210;51.502;10.722;2023-01-30T01:08:58;99707.06;;;1.30;97.85
14253;BME280;7210;51.502;10.722;2023-01-30T01:11:26;99683.13;;;1.34;97.50
14253;BME280;7210;51.502;10.722;2023-01-30T01:13:56;99693.72;;;1.41;97.60
14253;BME280;7210;51.502;10.722;2023-01-30T01:16:25;99693.84;;;1.47;98.07
14253;BME280;7210;51.502;10.722;2023-01-30T01:18:53;99720.50;;;1.57;98.05
14253;BME280;7210;51.502;10.722;2023-01-30T01:21:21;99718.22;;;1.62;97.39
14253;BME280;7210;51.502;10.722;2023-01-30T01:23:56;99724.88;;;1.73;97.49
14253;BME280;7210;51.502;10.722;2023-01-30T01:26:25;99713.31;;;1.75;97.34
14253;BME280;7210;51.502;10.722;2023-01-30T01:28:54;99714.13;;;1.76;97.27
14253;BME280;7210;51.502;10.722;2023-01-30T01:31:22;99690.81;;;1.74;97.25
14253;BME280;7210;51.502;10.722;2023-01-30T01:33:50;99692.94;;;1.79;97.06
14253;BME280;7210;51.502;10.722;2023-01-30T01:36:18;99679.72;;;1.80;97.06
14253;BME280;7210;51.502;10.722;2023-01-30T01:38:45;99669.66;;;1.77;97.01
14253;BME280;7210;51.502;10.722;2023-01-30T01:41:15;99677.13;;;1.80;97.04
14253;BME280;7210;51.502;10.722;2023-01-30T01:46:42;99663.47;;;1.78;97.35
14253;BME280;7210;51.502;10.722;2023-01-30T01:49:17;99658.88;;;1.80;96.81
14253;BME280;7210;51.502;10.722;2023-01-30T01:51:52;99655.97;;;1.83;97.14
14253;BME280;7210;51.502;10.722;2023-01-30T01:54:27;99644.56;;;1.84;97.12
14253;BME280;7210;51.502;10.722;2023-01-30T01:56:55;99622.09;;;1.83;97.00
14253;BME280;7210;51.502;10.722;2023-01-30T01:59:29;99604.00;;;1.82;96.92
14253;BME280;7210;51.502;10.722;2023-01-30T02:02:05;99592.75;;;1.81;97.23
14253;BME280;7210;51.502;10.722;2023-01-30T02:04:36;99585.94;;;1.80;97.42
14253;BME280;7210;51.502;10.722;2023-01-30T02:07:23;99596.34;;;1.80;97.25
14253;BME280;7210;51.502;10.722;2023-01-30T02:09:51;99573.28;;;1.69;97.16
14253;BME280;7210;51.502;10.722;2023-01-30T02:12:19;99577.47;;;1.78;96.89
14253;BME280;7210;51.502;10.722;2023-01-30T02:14:48;99574.88;;;1.78;97.05
14253;BME280;7210;51.502;10.722;2023-01-30T02:17:17;99562.19;;;1.75;96.98
14253;BME280;7210;51.502;10.722;2023-01-30T02:19:53;99544.13;;;1.74;97.08
14253;BME280;7210;51.502;10.722;2023-01-30T02:22:58;99540.41;;;1.68;97.24
14253;BME280;7210;51.502;10.722;2023-01-30T02:26:18;99545.63;;;1.68;97.28
14253;BME280;7210;51.502;10.722;2023-01-30T02:32:07;99550.47;;;1.71;97.50
14253;BME280;7210;51.502;10.722;2023-01-30T02:34:48;99553.19;;;1.78;97.26
14253;BME280;7210;51.502;10.722;2023-01-30T02:37:30;99539.91;;;1.73;97.58
14253;BME280;7210;51.502;10.722;2023-01-30T02:40:17;99540.38;;;1.76;97.26
14253;BME280;7210;51.502;10.722;2023-01-30T02:43:00;99541.63;;;1.80;97.57
14253;BME280;7210;51.502;10.722;2023-01-30T02:45:35;99516.22;;;1.82;97.15
14253;BME280;7210;51.502;10.722;2023-01-30T02:48:12;99496.53;;;1.80;97.58
14253;BME280;7210;51.502;10.722;2023-01-30T02:50:45;99506.44;;;1.84;97.21
14253;BME280;7210;51.502;10.722;2023-01-30T02:53:15;99512.28;;;1.86;97.26
14253;BME280;7210;51.502;10.722;2023-01-30T02:55:42;99516.81;;;1.92;97.41
14253;BME280;7210;51.502;10.722;2023-01-30T02:58:19;99521.66;;;1.95;97.41
14253;BME280;7210;51.502;10.722;2023-01-30T03:01:20;99506.66;;;1.97;97.35
14253;BME280;7210;51.502;10.722;2023-01-30T03:04:15;99502.09;;;1.99;97.34
14253;BME280;7210;51.502;10.722;2023-01-30T03:07:11;99502.44;;;1.96;97.62
14253;BME280;7210;51.502;10.722;2023-01-30T03:09:47;99491.91;;;1.90;97.61
14253;BME280;7210;51.502;10.722;2023-01-30T03:15:13;99485.97;;;1.73;98.57
14253;BME280;7210;51.502;10.722;2023-01-30T03:17:49;99504.22;;;1.73;98.71
14253;BME280;7210;51.502;10.722;2023-01-30T03:20:19;99501.50;;;1.67;99.62
14253;BME280;7210;51.502;10.722;2023-01-30T03:22:47;99504.47;;;1.64;100.00
14253;BME280;7210;51.502;10.722;2023-01-30T03:25:19;99517.00;;;1.60;100.00
14253;BME280;7210;51.502;10.722;2023-01-30T03:27:49;99512.13;;;1.57;100.00
14253;BME280;7210;51.502;10.722;2023-01-30T03:30:19;99511.34;;;1.57;100.00
14253;BME280;7210;51.502;10.722;2023-01-30T03:32:48;99505.97;;;1.50;100.00
14253;BME280;7210;51.502;10.722;2023-01-30T03:35:15;99510.97;;;1.60;100.00
14253;BME280;7210;51.502;10.722;2023-01-30T03:37:45;99508.22;;;1.61;100.00
14253;BME280;7210;51.502;10.722;2023-01-30T03:40:15;99513.53;;;1.68;100.00
14253;BME280;7210;51.502;10.722;2023-01-30T03:42:44;99511.41;;;1.71;100.00
14253;BME280;7210;51.502;10.722;2023-01-30T03:45:11;99498.03;;;1.74;100.00
14253;BME280;7210;51.502;10.722;2023-01-30T03:47:42;99492.47;;;1.77;100.00
14253;BME280;7210;51.502;10.722;2023-01-30T03:50:10;99477.47;;;1.79;100.00
14253;BME280;7210;51.502;10.722;2023-01-30T03:52:38;99485.88;;;1.89;100.00
14253;BME280;7210;51.502;10.722;2023-01-30T03:55:11;99489.13;;;1.91;100.00
14253;BME280;7210;51.502;10.722;2023-01-30T03:57:40;99473.81;;;1.88;100.00
14253;BME280;7210;51.502;10.722;2023-01-30T04:00:09;99471.75;;;1.84;100.00
14253;BME280;7210;51.502;10.722;2023-01-30T04:02:43;99462.78;;;1.86;100.00
14253;BME280;7210;51.502;10.722;2023-01-30T04:05:15;99462.16;;;1.84;100.00
14253;BME280;7210;51.502;10.722;2023-01-30T04:07:48;99461.78;;;1.87;100.00
14253;BME280;7210;51.502;10.722;2023-01-30T04:10:17;99443.28;;;1.82;100.00
14253;BME280;7210;51.502;10.722;2023-01-30T04:12:45;99432.72;;;1.76;100.00
14253;BME280;7210;51.502;10.722;2023-01-30T04:15:12;99436.78;;;1.78;100.00
14253;BME280;7210;51.502;10.722;2023-01-30T04:18:05;99419.69;;;1.76;100.00
14253;BME280;7210;51.502;10.722;2023-01-30T04:20:38;99414.53;;;1.68;100.00
14253;BME280;7210;51.502;10.722;2023-01-30T04:23:05;99422.53;;;1.66;100.00
14253;BME280;7210;51.502;10.722;2023-01-30T04:25:34;99415.69;;;1.65;100.00
14253;BME280;7210;51.502;10.722;2023-01-30T04:28:06;99431.47;;;1.72;100.00
14253;BME280;7210;51.502;10.722;2023-01-30T04:30:36;99423.81;;;1.70;100.00
14253;BME280;7210;51.502;10.722;2023-01-30T04:33:23;99420.22;;;1.71;100.00
14253;BME280;7210;51.502;10.722;2023-01-30T04:35:53;99404.13;;;1.68;100.00
14253;BME280;7210;51.502;10.722;2023-01-30T04:38:22;99410.16;;;1.68;100.00
14253;BME280;7210;51.502;10.722;2023-01-30T04:40:53;99402.88;;;1.64;100.00
14253;BME280;7210;51.502;10.722;2023-01-30T04:43:23;99399.59;;;1.62;100.00
14253;BME280;7210;51.502;10.722;2023-01-30T04:46:09;99405.63;;;1.62;100.00
14253;BME280;7210;51.502;10.722;2023-01-30T04:48:37;99398.81;;;1.61;100.00
14253;BME280;7210;51.502;10.722;2023-01-30T04:51:11;99390.00;;;1.62;100.00
14253;BME280;7210;51.502;10.722;2023-01-30T04:53:40;99385.78;;;1.61;100.00
14253;BME280;7210;51.502;10.722;2023-01-30T04:56:10;99389.19;;;1.62;100.00
14253;BME280;7210;51.502;10.722;2023-01-30T04:58:37;99367.16;;;1.50;100.00
14253;BME280;7210;51.502;10.722;2023-01-30T05:01:15;99378.59;;;1.63;100.00
14253;BME280;7210;51.502;10.722;2023-01-30T05:03:43;99376.00;;;1.63;100.00
14253;BME280;7210;51.502;10.722;2023-01-30T05:06:10;99378.59;;;1.63;100.00
14253;BME280;7210;51.502;10.722;2023-01-30T05:08:37;99374.38;;;1.62;100.00
14253;BME280;7210;51.502;10.722;2023-01-30T05:11:06;99365.56;;;1.63;100.00
14253;BME280;7210;51.502;10.722;2023-01-30T05:13:34;99361.19;;;1.64;100.00
14253;BME280;7210;51.502;10.722;2023-01-30T05:16:01;99355.00;;;1.65;100.00
14253;BME280;7210;51.502;10.722;2023-01-30T05:18:30;99336.16;;;1.55;100.00
14253;BME280;7210;51.502;10.722;2023-01-30T05:21:04;99352.47;;;1.71;100.00
14253;BME280;7210;51.502;10.722;2023-01-30T05:23:32;99357.31;;;1.74;100.00
14253;BME280;7210;51.502;10.722;2023-01-30T05:26:00;99339.47;;;1.71;100.00
14253;BME280;7210;51.502;10.722;2023-01-30T05:28:29;99336.84;;;1.71;100.00
14253;BME280;7210;51.502;10.722;2023-01-30T05:31:02;99331.81;;;1.70;100.00
14253;BME280;7210;51.502;10.722;2023-01-30T05:33:31;99344.13;;;1.76;100.00
14253;BME280;7210;51.502;10.722;2023-01-30T05:36:00;99340.91;;;1.74;100.00
14253;BME280;7210;51.502;10.722;2023-01-30T05:38:29;99337.78;;;1.78;100.00
14253;BME280;7210;51.502;10.722;2023-01-30T05:41:00;99347.13;;;1.87;100.00
14253;BME280;7210;51.502;10.722;2023-01-30T05:43:29;99346.97;;;2.03;100.00
14253;BME280;7210;51.502;10.722;2023-01-30T05:46:05;99333.50;;;2.14;100.00
14253;BME280;7210;51.502;10.722;2023-01-30T05:48:33;99323.59;;;2.24;100.00
14253;BME280;7210;51.502;10.722;2023-01-30T05:51:00;99332.84;;;2.41;100.00
14253;BME280;7210;51.502;10.722;2023-01-30T05:53:31;99319.81;;;2.41;100.00
14253;BME280;7210;51.502;10.722;2023-01-30T05:56:03;99322.78;;;2.38;100.00
14253;BME280;7210;51.502;10.722;2023-01-30T05:58:31;99323.59;;;2.53;100.00
14253;BME280;7210;51.502;10.722;2023-01-30T06:01:06;99323.59;;;2.53;100.00
14253;BME280;7210;51.502;10.722;2023-01-30T06:03:35;99309.28;;;2.49;100.00
14253;BME280;7210;51.502;10.722;2023-01-30T06:06:03;99308.28;;;2.50;100.00
14253;BME280;7210;51.502;10.722;2023-01-30T06:08:43;99306.75;;;2.56;100.00
14253;BME280;7210;51.502;10.722;2023-01-30T06:11:13;99307.94;;;2.53;100.00
14253;BME280;7210;51.502;10.722;2023-01-30T06:13:43;99293.44;;;2.51;100.00
14253;BME280;7210;51.502;10.722;2023-01-30T06:16:14;99292.63;;;2.50;100.00
14253;BME280;7210;51.502;10.722;2023-01-30T06:18:43;99282.94;;;2.44;100.00
14253;BME280;7210;51.502;10.722;2023-01-30T06:21:12;99293.56;;;2.43;100.00
14253;BME280;7210;51.502;10.722;2023-01-30T06:23:41;99278.06;;;2.41;100.00
14253;BME280;7210;51.502;10.722;2023-01-30T06:26:08;99286.06;;;2.40;100.00
14253;BME280;7210;51.502;10.722;2023-01-30T06:28:36;99288.16;;;2.44;100.00
14253;BME280;7210;51.502;10.722;2023-01-30T06:31:06;99283.66;;;2.38;100.00
14253;BME280;7210;51.502;10.722;2023-01-30T06:33:38;99279.06;;;2.40;100.00
14253;BME280;7210;51.502;10.722;2023-01-30T06:36:06;99294.56;;;2.42;100.00
14253;BME280;7210;51.502;10.722;2023-01-30T06:38:42;99291.75;;;2.43;100.00
14253;BME280;7210;51.502;10.722;2023-01-30T06:41:10;99266.31;;;2.31;100.00
14253;BME280;7210;51.502;10.722;2023-01-30T06:43:37;99278.19;;;2.33;100.00
14253;BME280;7210;51.502;10.722;2023-01-30T06:46:04;99290.78;;;2.44;100.00
14253;BME280;7210;51.502;10.722;2023-01-30T06:48:38;99280.69;;;2.56;100.00
14253;BME280;7210;51.502;10.722;2023-01-30T06:51:05;99287.13;;;2.60;100.00
14253;BME280;7210;51.502;10.722;2023-01-30T06:53:36;99280.13;;;2.60;100.00
14253;BME280;7210;51.502;10.722;2023-01-30T06:56:04;99281.81;;;2.68;100.00
14253;BME280;7210;51.502;10.722;2023-01-30T06:58:31;99263.91;;;2.65;100.00
14253;BME280;7210;51.502;10.722;2023-01-30T07:00:59;99266.75;;;2.70;100.00
14253;BME280;7210;51.502;10.722;2023-01-30T07:03:26;99248.56;;;2.55;100.00
14253;BME280;7210;51.502;10.722;2023-01-30T07:05:55;99257.88;;;2.64;100.00
14253;BME280;7210;51.502;10.722;2023-01-30T07:08:22;99262.38;;;2.70;100.00
14253;BME280;7210;51.502;10.722;2023-01-30T07:10:54;99240.66;;;2.70;100.00
14253;BME280;7210;51.502;10.722;2023-01-30T07:13:22;99236.44;;;2.69;100.00
14253;BME280;7210;51.502;10.722;2023-01-30T07:15:49;99227.06;;;2.74;100.00
14253;BME280;7210;51.502;10.722;2023-01-30T07:18:24;99230.50;;;2.75;100.00
14253;BME280;7210;51.502;10.722;2023-01-30T07:20:52;99232.97;;;2.83;100.00
14253;BME280;7210;51.502;10.722;2023-01-30T07:23:20;99223.59;;;2.88;100.00
14253;BME280;7210;51.502;10.722;2023-01-30T07:25:47;99221.59;;;2.90;100.00
14253;BME280;7210;51.502;10.722;2023-01-30T07:28:14;99204.44;;;2.81;100.00
14253;BME280;7210;51.502;10.722;2023-01-30T07:30:42;99218.81;;;2.92;100.00
14253;BME280;7210;51.502;10.722;2023-01-30T07:33:10;99212.84;;;2.98;100.00
14253;BME280;7210;51.502;10.722;2023-01-30T07:35:37;99209.28;;;3.05;100.00
14253;BME280;7210;51.502;10.722;2023-01-30T07:38:05;99224.81;;;3.13;100.00
14253;BME280;7210;51.502;10.722;2023-01-30T07:40:33;99218.22;;;3.17;100.00
14253;BME280;7210;51.502;10.722;2023-01-30T07:43:04;99206.91;;;3.10;100.00
14253;BME280;7210;51.502;10.722;2023-01-30T07:45:37;99199.47;;;3.07;100.00
14253;BME280;7210;51.502;10.722;2023-01-30T07:48:07;99193.44;;;3.07;100.00
14253;BME280;7210;51.502;10.722;2023-01-30T07:50:37;99187.78;;;3.03;100.00
14253;BME280;7210;51.502;10.722;2023-01-30T07:53:04;99186.00;;;3.04;100.00
14253;BME280;7210;51.502;10.722;2023-01-30T07:55:50;99175.91;;;3.01;100.00
14253;BME280;7210;51.502;10.722;2023-01-30T07:58:17;99184.81;;;3.06;100.00
14253;BME280;7210;51.502;10.722;2023-01-30T08:00:44;99185.63;;;3.13;100.00
14253;BME280;7210;51.502;10.722;2023-01-30T08:03:14;99172.00;;;3.18;100.00
14253;BME280;7210;51.502;10.722;2023-01-30T08:05:41;99186.13;;;3.23;100.00
14253;BME280;7210;51.502;10.722;2023-01-30T08:08:09;99184.19;;;3.32;100.00
14253;BME280;7210;51.502;10.722;2023-01-30T08:10:36;99189.91;;;3.42;100.00
14253;BME280;7210;51.502;10.722;2023-01-30T08:13:04;99183.44;;;3.44;100.00
14253;BME280;7210;51.502;10.722;2023-01-30T08:15:36;99171.03;;;3.46;100.00
14253;BME280;7210;51.502;10.722;2023-01-30T08:18:13;99158.16;;;3.45;100.00
14253;BME280;7210;51.502;10.722;2023-01-30T08:20:40;99147.50;;;3.46;100.00
14253;BME280;7210;51.502;10.722;2023-01-30T08:23:26;99138.00;;;3.39;100.00
14253;BME280;7210;51.502;10.722;2023-01-30T08:25:55;99141.63;;;3.38;100.00
14253;BME280;7210;51.502;10.722;2023-01-30T08:28:24;99131.16;;;3.31;100.00
14253;BME280;7210;51.502;10.722;2023-01-30T08:30:51;99137.81;;;3.34;100.00
14253;BME280;7210;51.502;10.722;2023-01-30T08:33:20;99129.97;;;3.34;100.00
14253;BME280;7210;51.502;10.722;2023-01-30T08:35:48;99134.56;;;3.32;100.00
14253;BME280;7210;51.502;10.722;2023-01-30T08:38:18;99134.75;;;3.30;100.00
14253;BME280;7210;51.502;10.722;2023-01-30T08:40:46;99135.53;;;3.24;100.00
14253;BME280;7210;51.502;10.722;2023-01-30T08:43:14;99123.81;;;3.20;100.00
14253;BME280;7210;51.502;10.722;2023-01-30T08:45:42;99131.66;;;3.20;100.00
14253;BME280;7210;51.502;10.722;2023-01-30T08:48:09;99123.19;;;3.12;100.00
14253;BME280;7210;51.502;10.722;2023-01-30T08:50:37;99130.66;;;3.21;100.00
14253;BME280;7210;51.502;10.722;2023-01-30T08:53:05;99122.22;;;3.19;100.00
14253;BME280;7210;51.502;10.722;2023-01-30T08:55:32;99131.50;;;3.28;100.00
14253;BME280;7210;51.502;10.722;2023-01-30T08:58:00;99146.06;;;3.37;100.00
14253;BME280;7210;51.502;10.722;2023-01-30T09:00:28;99142.44;;;3.38;100.00
14253;BME280;7210;51.502;10.722;2023-01-30T09:02:58;99126.78;;;3.38;100.00
14253;BME280;7210;51.502;10.722;2023-01-30T09:05:27;99126.78;;;3.38;100.00
14253;BME280;7210;51.502;10.722;2023-01-30T09:07:55;99118.34;;;3.43;100.00
14253;BME280;7210;51.502;10.722;2023-01-30T09:10:22;99113.56;;;3.46;100.00
14253;BME280;7210;51.502;10.722;2023-01-30T09:12:49;99128.84;;;3.55;100.00
14253;BME280;7210;51.502;10.722;2023-01-30T09:15:16;99127.06;;;3.56;100.00
14253;BME280;7210;51.502;10.722;2023-01-30T09:17:44;99115.59;;;3.51;100.00
14253;BME280;7210;51.502;10.722;2023-01-30T09:20:13;99117.97;;;3.46;100.00
14253;BME280;7210;51.502;10.722;2023-01-30T09:22:42;99108.91;;;3.42;100.00
14253;BME280;7210;51.502;10.722;2023-01-30T09:25:10;99106.88;;;3.37;100.00
14253;BME280;7210;51.502;10.722;2023-01-30T09:27:37;99115.91;;;3.35;100.00
14253;BME280;7210;51.502;10.722;2023-01-30T09:30:08;99126.34;;;3.35;100.00
14253;BME280;7210;51.502;10.722;2023-01-30T09:32:37;99107.06;;;3.36;100.00
14253;BME280;7210;51.502;10.722;2023-01-30T09:35:05;99124.16;;;3.38;100.00
14253;BME280;7210;51.502;10.722;2023-01-30T09:37:34;99112.28;;;3.36;100.00
14253;BME280;7210;51.502;10.722;2023-01-30T09:40:02;99103.88;;;3.40;100.00
14253;BME280;7210;51.502;10.722;2023-01-30T09:42:53;99108.69;;;3.43;100.00
14253;BME280;7210;51.502;10.722;2023-01-30T09:45:41;99100.50;;;3.46;100.00
14253;BME280;7210;51.502;10.722;2023-01-30T09:48:20;99108.38;;;3.59;100.00
14253;BME280;7210;51.502;10.722;2023-01-30T09:51:25;99109.00;;;3.61;100.00
14253;BME280;7210;51.502;10.722;2023-01-30T09:54:15;99112.00;;;3.58;100.00
14253;BME280;7210;51.502;10.722;2023-01-30T09:56:45;99109.78;;;3.55;100.00
14253;BME280;7210;51.502;10.722;2023-01-30T09:59:23;99115.59;;;3.57;100.00
14253;BME280;7210;51.502;10.722;2023-01-30T10:02:00;99117.25;;;3.64;100.00
14253;BME280;7210;51.502;10.722;2023-01-30T10:04:34;99137.44;;;3.77;100.00
14253;BME280;7210;51.502;10.722;2023-01-30T10:07:15;99145.94;;;3.92;100.00
14253;BME280;7210;51.502;10.722;2023-01-30T10:10:03;99142.75;;;4.03;100.00
14253;BME280;7210;51.502;10.722;2023-01-30T10:12:51;99136.31;;;4.05;100.00
14253;BME280;7210;51.502;10.722;2023-01-30T10:15:34;99132.28;;;4.09;100.00
14253;BME280;7210;51.502;10.722;2023-01-30T10:21:36;99126.69;;;4.25;100.00
14253;BME280;7210;51.502;10.722;2023-01-30T10:24:27;99119.50;;;4.34;100.00
14253;BME280;7210;51.502;10.722;2023-01-30T10:27:15;99119.72;;;4.52;100.00
14253;BME280;7210;51.502;10.722;2023-01-30T10:29:47;99108.25;;;4.72;100.00
14253;BME280;7210;51.502;10.722;2023-01-30T10:32:24;99086.69;;;4.90;100.00
14253;BME280;7210;51.502;10.722;2023-01-30T10:34:59;99063.13;;;5.03;100.00
14253;BME280;7210;51.502;10.722;2023-01-30T10:37:38;99064.28;;;5.20;100.00
14253;BME280;7210;51.502;10.722;2023-01-30T10:40:20;99060.59;;;5.47;100.00
14253;BME280;7210;51.502;10.722;2023-01-30T10:43:02;99047.00;;;5.63;100.00
14253;BME280;7210;51.502;10.722;2023-01-30T10:45:41;99035.47;;;5.70;100.00
14253;BME280;7210;51.502;10.722;2023-01-30T10:48:48;99042.00;;;5.99;100.00
14253;BME280;7210;51.502;10.722;2023-01-30T10:51:42;99037.38;;;6.25;100.00
14253;BME280;7210;51.502;10.722;2023-01-30T10:54:18;99025.66;;;6.28;100.00
14253;BME280;7210;51.502;10.722;2023-01-30T10:56:57;99006.16;;;6.17;100.00
14253;BME280;7210;51.502;10.722;2023-01-30T10:59:40;98973.66;;;5.94;100.00
14253;BME280;7210;51.502;10.722;2023-01-30T11:02:23;98961.66;;;5.67;100.00
14253;BME280;7210;51.502;10.722;2023-01-30T11:04:58;98949.50;;;5.41;100.00
14253;BME280;7210;51.502;10.722;2023-01-30T11:07:31;98967.53;;;5.25;100.00
14253;BME280;7210;51.502;10.722;2023-01-30T11:09:59;98969.59;;;5.10;100.00
14253;BME280;7210;51.502;10.722;2023-01-30T11:12:30;99000.28;;;4.90;100.00
14253;BME280;7210;51.502;10.722;2023-01-30T11:15:02;98968.34;;;3.84;100.00
14253;BME280;7210;51.502;10.722;2023-01-30T11:17:34;98947.78;;;2.95;100.00
14253;BME280;7210;51.502;10.722;2023-01-30T11:20:13;98956.41;;;2.62;100.00
14253;BME280;7210;51.502;10.722;2023-01-30T11:22:47;98998.22;;;2.68;100.00
14253;BME280;7210;51.502;10.722;2023-01-30T11:25:19;99015.19;;;2.85;100.00
14253;BME280;7210;51.502;10.722;2023-01-30T11:27:55;99028.94;;;3.00;100.00
14253;BME280;7210;51.502;10.722;2023-01-30T11:30:33;99049.06;;;3.13;100.00
14253;BME280;7210;51.502;10.722;2023-01-30T11:33:10;99066.91;;;3.43;100.00
14253;BME280;7210;51.502;10.722;2023-01-30T11:35:50;99074.69;;;3.77;100.00
14253;BME280;7210;51.502;10.722;2023-01-30T11:38:22;99087.25;;;4.07;100.00
14253;BME280;7210;51.502;10.722;2023-01-30T11:41:00;99088.06;;;4.14;100.00
14253;BME280;7210;51.502;10.722;2023-01-30T11:43:28;99098.09;;;4.11;100.00
14253;BME280;7210;51.502;10.722;2023-01-30T11:46:02;99116.41;;;4.11;100.00
14253;BME280;7210;51.502;10.722;2023-01-30T11:48:35;99102.97;;;4.20;100.00
14253;BME280;7210;51.502;10.722;2023-01-30T11:51:10;99087.50;;;4.32;100.00
14253;BME280;7210;51.502;10.722;2023-01-30T11:53:43;99100.38;;;4.40;100.00
14253;BME280;7210;51.502;10.722;2023-01-30T11:56:19;99101.78;;;4.36;100.00
14253;BME280;7210;51.502;10.722;2023-01-30T11:58:57;99100.97;;;4.29;100.00
14253;BME280;7210;51.502;10.722;2023-01-30T12:01:38;99111.59;;;4.21;100.00
14253;BME280;7210;51.502;10.722;2023-01-30T12:04:09;99100.44;;;3.80;100.00
14253;BME280;7210;51.502;10.722;2023-01-30T12:06:40;99074.72;;;3.43;100.00
14253;BME280;7210;51.502;10.722;2023-01-30T12:09:35;99051.97;;;3.31;100.00
14253;BME280;7210;51.502;10.722;2023-01-30T12:12:25;99048.72;;;3.22;100.00
14253;BME280;7210;51.502;10.722;2023-01-30T12:15:10;99044.28;;;3.16;100.00
14253;BME280;7210;51.502;10.722;2023-01-30T12:17:51;99041.44;;;3.11;100.00
14253;BME280;7210;51.502;10.722;2023-01-30T12:20:29;99030.13;;;3.04;100.00
14253;BME280;7210;51.502;10.722;2023-01-30T12:23:17;99038.44;;;3.14;100.00
14253;BME280;7210;51.502;10.722;2023-01-30T12:26:15;99056.06;;;3.46;100.00
14253;BME280;7210;51.502;10.722;2023-01-30T12:28:54;99056.94;;;3.66;100.00
14253;BME280;7210;51.502;10.722;2023-01-30T12:31:31;99050.53;;;3.68;100.00
14253;BME280;7210;51.502;10.722;2023-01-30T12:34:02;99052.00;;;3.84;100.00
14253;BME280;7210;51.502;10.722;2023-01-30T12:36:41;99036.91;;;3.99;100.00
14253;BME280;7210;51.502;10.722;2023-01-30T12:39:35;99072.41;;;4.27;100.00
14253;BME280;7210;51.502;10.722;2023-01-30T12:42:39;99064.94;;;4.44;100.00
14253;BME280;7210;51.502;10.722;2023-01-30T12:45:21;99038.59;;;4.52;100.00
14253;BME280;7210;51.502;10.722;2023-01-30T12:48:23;99038.59;;;4.39;100.00
14253;BME280;7210;51.502;10.722;2023-01-30T12:51:08;99022.09;;;4.38;100.00
14253;BME280;7210;51.502;10.722;2023-01-30T12:53:55;99022.50;;;4.42;100.00
14253;BME280;7210;51.502;10.722;2023-01-30T12:57:01;99020.28;;;4.45;100.00
14253;BME280;7210;51.502;10.722;2023-01-30T12:59:41;99018.66;;;4.51;100.00
14253;BME280;7210;51.502;10.722;2023-01-30T13:02:47;99017.66;;;4.65;100.00
14253;BME280;7210;51.502;10.722;2023-01-30T13:05:33;99012.63;;;4.70;100.00
14253;BME280;7210;51.502;10.722;2023-01-30T13:08:30;98989.66;;;4.72;100.00
14253;BME280;7210;51.502;10.722;2023-01-30T13:11:14;98984.19;;;4.80;100.00
14253;BME280;7210;51.502;10.722;2023-01-30T13:13:57;98984.63;;;4.77;100.00
14253;BME280;7210;51.502;10.722;2023-01-30T13:16:36;98976.56;;;4.72;100.00
14253;BME280;7210;51.502;10.722;2023-01-30T13:19:17;98965.66;;;4.75;100.00
14253;BME280;7210;51.502;10.722;2023-01-30T13:21:52;98966.88;;;4.79;100.00
14253;BME280;7210;51.502;10.722;2023-01-30T13:24:38;98956.41;;;4.79;100.00
14253;BME280;7210;51.502;10.722;2023-01-30T13:27:14;98954.81;;;4.78;100.00
14253;BME280;7210;51.502;10.722;2023-01-30T13:29:43;98959.63;;;4.81;100.00
14253;BME280;7210;51.502;10.722;2023-01-30T13:32:25;98950.31;;;4.91;100.00
14253;BME280;7210;51.502;10.722;2023-01-30T13:34:58;98936.63;;;4.96;100.00
14253;BME280;7210;51.502;10.722;2023-01-30T13:37:28;98933.41;;;4.94;100.00
14253;BME280;7210;51.502;10.722;2023-01-30T13:40:03;98932.38;;;4.95;100.00
14253;BME280;7210;51.502;10.722;2023-01-30T13:42:40;98925.53;;;4.94;100.00
14253;BME280;7210;51.502;10.722;2023-01-30T13:45:15;98939.44;;;5.01;100.00
14253;BME280;7210;51.502;10.722;2023-01-30T13:47:54;98933.34;;;5.07;100.00
14253;BME280;7210;51.502;10.722;2023-01-30T13:50:48;98947.44;;;5.12;100.00